Time;durP1;ratioP1;P1;durP2;ratioP2;P2;SDS_P1;SDS_P2;PMS_P1;PMS_P2;Temp;Humidity;BMP_temperature;BMP_pressure;BME280_temperature;BME280_humidity;BME280_pressure;Samples;Min_cycle;Max_cycle;Signal;HPM_P1;HPM_P2
2021/08/07 00:01:55;;;;;;;3.33;1.23;;;;;;;23.10;43.61;99128.09;5046356;28;20210;-72
2021/08/07 00:04:21;;;;;;;2.60;1.20;;;;;;;23.03;43.57;99121.31;5051824;28;20040;-72
2021/08/07 00:06:46;;;;;;;2.47;0.80;;;;;;;23.01;43.58;99129.66;5044737;28;20052;-72
2021/08/07 00:09:12;;;;;;;5.35;1.45;;;;;;;23.00;43.75;99138.00;5043992;28;20036;-72
2021/08/07 00:11:37;;;;;;;1.63;1.05;;;;;;;22.99;43.78;99144.47;5046093;28;20033;-72
2021/08/07 00:14:03;;;;;;;6.47;1.40;;;;;;;22.86;44.00;99140.28;5046181;28;20085;-72
2021/08/07 00:16:28;;;;;;;3.38;1.10;;;;;;;22.88;44.25;99149.75;5047358;28;20029;-72
2021/08/07 00:18:53;;;;;;;2.53;1.13;;;;;;;22.92;44.15;99142.00;5047447;28;20044;-72
2021/08/07 00:21:19;;;;;;;1.55;1.20;;;;;;;22.96;43.79;99145.81;5026818;28;20040;-72
2021/08/07 00:23:45;;;;;;;6.05;1.23;;;;;;;22.98;43.74;99156.34;5052345;28;20029;-72
2021/08/07 00:26:10;;;;;;;3.45;1.08;;;;;;;23.15;43.50;99152.44;5048774;28;20037;-72
2021/08/07 00:28:36;;;;;;;1.40;1.20;;;;;;;23.17;43.28;99152.19;5046253;28;20131;-74
2021/08/07 00:31:01;;;;;;;6.00;1.48;;;;;;;23.05;43.77;99152.38;5051291;28;20033;-74
2021/08/07 00:33:26;;;;;;;1.40;1.25;;;;;;;22.98;43.70;99145.56;5052601;28;20321;-73
2021/08/07 00:35:52;;;;;;;3.10;1.25;;;;;;;22.95;43.65;99143.38;5049242;28;20033;-73
2021/08/07 00:38:17;;;;;;;3.20;1.35;;;;;;;22.98;43.42;99138.28;5034477;28;20336;-74
2021/08/07 00:40:43;;;;;;;3.45;1.17;;;;;;;22.85;43.61;99139.47;5052371;28;20029;-72
2021/08/07 00:43:10;;;;;;;1.95;1.20;;;;;;;22.79;43.70;99147.75;5057066;28;20040;-72
2021/08/07 00:45:39;;;;;;;4.25;1.20;;;;;;;22.87;43.52;99150.84;5054405;28;20036;-71
2021/08/07 00:48:07;;;;;;;3.17;1.27;;;;;;;22.89;43.53;99153.31;5034707;28;20025;-71
2021/08/07 00:50:32;;;;;;;1.92;1.20;;;;;;;23.06;43.15;99154.00;5052511;28;20029;-70
2021/08/07 00:52:58;;;;;;;3.55;1.40;;;;;;;23.05;42.91;99143.47;5053475;28;20342;-70
2021/08/07 00:55:24;;;;;;;8.18;1.10;;;;;;;23.00;42.99;99132.63;5052933;28;20092;-70
2021/08/07 00:57:49;;;;;;;2.72;1.40;;;;;;;23.05;42.91;99149.66;5036286;28;20032;-70
2021/08/07 01:00:15;;;;;;;2.38;1.33;;;;;;;22.89;43.19;99159.53;5052625;28;20030;-70
2021/08/07 01:02:46;;;;;;;1.85;1.30;;;;;;;22.85;43.47;99160.25;5049610;28;20041;-71
2021/08/07 01:05:36;;;;;;;6.93;1.40;;;;;;;23.06;42.78;99156.69;5048696;28;20032;-71
2021/08/07 01:08:04;;;;;;;4.47;1.38;;;;;;;23.01;43.02;99164.75;5050079;28;20036;-73
2021/08/07 01:10:35;;;;;;;3.63;1.50;;;;;;;23.08;42.92;99165.34;5047359;28;20025;-73
2021/08/07 01:13:11;;;;;;;2.55;1.23;;;;;;;23.01;42.81;99155.84;5058391;28;20032;-73
2021/08/07 01:15:44;;;;;;;2.15;1.40;;;;;;;23.05;42.73;99165.06;5048438;28;20056;-74
2021/08/07 01:18:14;;;;;;;3.83;1.35;;;;;;;23.08;42.79;99169.94;5049942;28;20043;-73
2021/08/07 01:20:44;;;;;;;1.67;1.33;;;;;;;23.18;42.47;99160.03;5051761;28;20057;-71
2021/08/07 01:23:21;;;;;;;2.60;1.60;;;;;;;23.01;42.91;99158.53;5045995;28;20087;-72
2021/08/07 01:25:56;;;;;;;2.10;1.20;;;;;;;22.97;43.27;99163.66;5050114;28;20036;-71
2021/08/07 01:28:26;;;;;;;3.50;1.30;;;;;;;22.82;43.38;99166.19;5058168;28;20037;-71
2021/08/07 01:30:54;;;;;;;3.83;1.30;;;;;;;22.79;43.62;99163.94;5052274;28;20074;-72
2021/08/07 01:33:20;;;;;;;2.55;1.20;;;;;;;22.69;43.83;99161.97;5053457;28;20025;-71
2021/08/07 01:35:49;;;;;;;3.28;1.25;;;;;;;22.63;44.10;99168.38;5056370;28;20036;-71
2021/08/07 01:38:15;;;;;;;2.65;1.40;;;;;;;22.70;43.98;99170.88;5054738;28;20423;-71
2021/08/07 01:40:41;;;;;;;3.15;1.10;;;;;;;22.60;44.01;99161.63;5050894;28;20199;-72
2021/08/07 01:43:06;;;;;;;1.75;1.30;;;;;;;22.47;44.62;99167.41;5048887;28;20040;-72
2021/08/07 01:45:32;;;;;;;2.42;1.30;;;;;;;22.43;44.83;99157.38;5055696;28;20071;-72
2021/08/07 01:48:06;;;;;;;2.45;1.60;;;;;;;22.42;44.48;99155.75;5056353;28;20037;-74
2021/08/07 01:50:37;;;;;;;5.68;1.33;;;;;;;22.36;44.79;99154.06;5051268;28;20029;-73
2021/08/07 01:53:09;;;;;;;4.57;1.38;;;;;;;22.43;44.73;99168.19;5050036;28;20071;-74
2021/08/07 01:55:44;;;;;;;1.38;1.15;;;;;;;22.56;44.50;99163.19;5049886;28;20053;-73
2021/08/07 01:58:13;;;;;;;3.47;1.70;;;;;;;22.52;44.60;99156.69;5050215;28;20508;-73
2021/08/07 02:00:41;;;;;;;3.17;1.20;;;;;;;22.69;44.19;99167.38;5049289;28;20036;-71
2021/08/07 02:03:09;;;;;;;3.10;1.42;;;;;;;22.58;44.54;99154.84;5044249;28;20033;-72
2021/08/07 02:05:35;;;;;;;3.75;1.50;;;;;;;22.37;44.95;99161.09;5037512;28;20033;-71
2021/08/07 02:08:01;;;;;;;3.25;1.40;;;;;;;22.40;44.83;99166.78;5040006;28;20091;-72
2021/08/07 02:10:27;;;;;;;2.15;1.67;;;;;;;22.31;45.39;99160.22;5049124;28;20048;-71
2021/08/07 02:12:53;;;;;;;4.65;1.23;;;;;;;22.22;45.67;99145.56;5054472;28;20017;-72
2021/08/07 02:15:20;;;;;;;9.10;1.48;;;;;;;22.41;44.86;99151.44;5053928;28;20059;-71
2021/08/07 02:17:48;;;;;;;4.50;1.23;;;;;;;22.38;44.99;99158.16;5044971;28;20096;-72
2021/08/07 02:20:16;;;;;;;1.95;1.17;;;;;;;22.23;45.10;99161.47;5036032;28;20154;-72
2021/08/07 02:22:46;;;;;;;3.92;1.20;;;;;;;22.31;45.01;99160.22;5048419;28;20037;-71
2021/08/07 02:25:13;;;;;;;4.68;1.15;;;;;;;22.30;44.93;99161.28;5052716;28;20036;-71
2021/08/07 02:27:39;;;;;;;2.78;1.27;;;;;;;22.30;44.87;99156.72;5033618;28;20036;-73
2021/08/07 02:30:06;;;;;;;3.92;1.33;;;;;;;22.44;44.68;99159.00;5052227;28;20028;-73
2021/08/07 02:32:33;;;;;;;2.55;1.48;;;;;;;22.31;44.56;99141.34;5051539;28;20049;-73
2021/08/07 02:34:59;;;;;;;3.13;1.30;;;;;;;22.44;44.67;99162.53;5050459;28;20025;-73
2021/08/07 02:37:25;;;;;;;10.85;1.60;;;;;;;22.34;44.63;99159.72;5050876;28;20033;-73
2021/08/07 02:39:51;;;;;;;4.63;1.10;;;;;;;22.51;44.30;99165.03;5032851;28;20052;-71
2021/08/07 02:42:16;;;;;;;1.45;1.13;;;;;;;22.29;44.22;99138.91;5048809;28;20104;-71
2021/08/07 02:44:42;;;;;;;1.83;1.00;;;;;;;22.41;44.42;99168.44;5049317;28;20036;-71
2021/08/07 02:47:08;;;;;;;4.07;1.30;;;;;;;22.39;44.44;99164.34;5045860;28;20032;-71
2021/08/07 02:49:34;;;;;;;1.42;1.10;;;;;;;22.48;44.32;99160.13;5051422;28;20032;-72
2021/08/07 02:52:00;;;;;;;2.47;1.20;;;;;;;22.29;44.46;99156.97;5046471;28;20108;-71
2021/08/07 02:54:26;;;;;;;2.25;1.20;;;;;;;22.27;44.64;99156.41;5052929;28;20425;-72
2021/08/07 02:56:52;;;;;;;3.42;1.40;;;;;;;22.29;44.49;99149.69;5049906;28;20053;-71
2021/08/07 02:59:20;;;;;;;3.60;1.30;;;;;;;22.29;44.40;99138.09;5044799;28;20063;-71
2021/08/07 03:01:45;;;;;;;3.45;1.60;;;;;;;22.25;44.42;99153.97;5046337;28;20029;-71
2021/08/07 03:04:11;;;;;;;7.90;1.40;;;;;;;22.33;44.27;99155.38;5049652;28;20582;-71
2021/08/07 03:06:36;;;;;;;2.13;1.38;;;;;;;22.20;44.59;99155.78;5043003;28;20337;-73
2021/08/07 03:09:02;;;;;;;1.73;1.17;;;;;;;21.99;44.69;99152.00;5049935;28;20040;-73
2021/08/07 03:11:28;;;;;;;6.78;1.25;;;;;;;21.92;44.84;99164.84;5047515;28;20040;-73
2021/08/07 03:13:53;;;;;;;3.75;1.10;;;;;;;21.85;45.18;99169.59;5044932;28;20056;-73
2021/08/07 03:16:19;;;;;;;5.80;1.52;;;;;;;22.01;44.82;99170.59;5051938;28;20037;-73
2021/08/07 03:18:44;;;;;;;4.25;1.63;;;;;;;21.95;44.61;99162.47;5045103;28;20026;-71
2021/08/07 03:21:10;;;;;;;9.82;1.60;;;;;;;22.10;44.21;99177.22;5049648;28;20033;-71
2021/08/07 03:23:35;;;;;;;3.83;1.42;;;;;;;22.07;44.50;99175.84;5046745;28;20061;-71
2021/08/07 03:26:01;;;;;;;4.88;1.70;;;;;;;22.06;44.48;99176.09;5049526;28;20334;-71
2021/08/07 03:28:26;;;;;;;4.22;1.40;;;;;;;22.19;44.12;99171.13;5049274;28;20056;-71
2021/08/07 03:30:51;;;;;;;4.93;1.50;;;;;;;22.28;43.86;99183.13;5047653;28;20180;-71
2021/08/07 03:33:17;;;;;;;2.00;1.20;;;;;;;22.20;43.96;99185.44;5043861;28;20370;-71
2021/08/07 03:35:42;;;;;;;5.53;1.60;;;;;;;22.25;43.44;99197.09;5049693;28;20041;-71
2021/08/07 03:38:08;;;;;;;4.20;1.17;;;;;;;22.24;43.74;99197.34;5051721;28;20318;-71
2021/08/07 03:40:33;;;;;;;2.20;1.30;;;;;;;22.22;43.72;99207.56;5043265;28;20242;-71
2021/08/07 03:42:59;;;;;;;3.10;1.20;;;;;;;22.42;43.16;99207.81;5046281;28;20025;-71
2021/08/07 03:45:24;;;;;;;2.25;1.23;;;;;;;22.52;43.02;99209.81;5044093;28;20045;-71
2021/08/07 03:47:52;;;;;;;2.50;1.50;;;;;;;22.43;43.02;99200.53;5051227;28;20092;-73
2021/08/07 03:50:20;;;;;;;5.45;1.38;;;;;;;22.52;42.67;99216.03;5047986;28;20020;-73
2021/08/07 03:52:45;;;;;;;4.60;1.40;;;;;;;22.52;42.83;99215.22;5044837;28;20277;-73
2021/08/07 03:55:11;;;;;;;4.00;1.35;;;;;;;22.49;42.86;99205.75;5051358;28;20060;-74
2021/08/07 03:57:53;;;;;;;2.50;1.50;;;;;;;22.50;42.69;99193.06;5051484;28;20060;-73
2021/08/07 04:00:19;;;;;;;3.70;1.65;;;;;;;22.58;42.43;99214.22;5045318;28;20029;-71
2021/08/07 04:02:45;;;;;;;8.40;1.33;;;;;;;22.56;42.86;99214.47;5051433;28;20318;-71
2021/08/07 04:05:10;;;;;;;2.88;1.40;;;;;;;22.64;42.42;99221.28;5048588;28;20049;-71
2021/08/07 04:07:36;;;;;;;2.17;1.10;;;;;;;22.64;42.44;99226.69;5040297;28;20024;-71
2021/08/07 04:10:02;;;;;;;2.15;1.40;;;;;;;22.78;42.16;99229.81;5055123;28;20044;-71
2021/08/07 04:12:27;;;;;;;3.17;1.10;;;;;;;22.77;42.22;99231.69;5050792;28;20346;-71
2021/08/07 04:14:53;;;;;;;1.65;1.30;;;;;;;22.77;42.30;99230.88;5047591;28;20040;-71
2021/08/07 04:17:18;;;;;;;1.98;1.30;;;;;;;22.78;42.15;99232.50;5048158;28;20030;-71
2021/08/07 04:19:44;;;;;;;5.97;1.38;;;;;;;22.82;42.21;99237.16;5041518;28;20038;-71
2021/08/07 04:22:09;;;;;;;1.48;1.17;;;;;;;22.83;42.09;99228.00;5045009;28;20044;-71
2021/08/07 04:24:34;;;;;;;1.92;1.20;;;;;;;22.84;42.29;99234.22;5045411;28;20044;-73
2021/08/07 04:27:00;;;;;;;3.50;1.33;;;;;;;22.77;42.18;99231.69;5043806;28;20226;-74
2021/08/07 04:29:25;;;;;;;4.75;1.40;;;;;;;22.89;42.33;99240.50;5052829;28;20268;-73
2021/08/07 04:31:51;;;;;;;4.57;1.40;;;;;;;22.99;41.90;99245.19;5049975;28;20033;-73
2021/08/07 04:34:16;;;;;;;4.47;1.48;;;;;;;23.03;42.05;99257.13;5053576;28;20024;-73
2021/08/07 04:36:41;;;;;;;2.15;1.35;;;;;;;23.08;41.95;99251.78;5054658;28;20040;-72
2021/08/07 04:39:07;;;;;;;5.72;1.63;;;;;;;23.09;41.95;99266.09;5044334;28;20364;-72
2021/08/07 04:41:32;;;;;;;1.80;1.30;;;;;;;23.23;41.89;99259.19;5051139;28;20036;-71
2021/08/07 04:43:58;;;;;;;4.60;1.38;;;;;;;23.33;41.81;99269.28;5053614;28;20346;-71
2021/08/07 04:46:23;;;;;;;3.22;1.50;;;;;;;23.41;41.56;99271.50;5044027;28;20048;-71
2021/08/07 04:48:48;;;;;;;2.97;1.40;;;;;;;23.57;41.43;99284.09;5050566;28;20028;-71
2021/08/07 04:51:14;;;;;;;3.88;1.20;;;;;;;23.82;40.95;99287.00;5053934;28;20095;-71
2021/08/07 04:53:39;;;;;;;4.32;1.38;;;;;;;24.07;40.77;99294.50;5047548;28;20037;-71
2021/08/07 04:56:05;;;;;;;2.97;1.58;;;;;;;24.30;40.33;99300.63;5046187;28;20052;-71
2021/08/07 04:58:30;;;;;;;5.10;1.45;;;;;;;24.64;39.66;99304.56;5044180;28;20362;-71
2021/08/07 05:00:56;;;;;;;2.25;1.13;;;;;;;24.91;38.87;99306.28;5046067;28;20044;-71
2021/08/07 05:03:21;;;;;;;1.40;1.20;;;;;;;25.11;38.94;99315.34;5051716;28;20264;-73
2021/08/07 05:05:46;;;;;;;5.75;1.50;;;;;;;25.24;38.60;99315.91;5047010;28;20033;-73
2021/08/07 05:08:12;;;;;;;6.75;1.30;;;;;;;25.63;37.58;99321.66;5027029;28;20028;-73
2021/08/07 05:10:38;;;;;;;2.65;1.30;;;;;;;25.54;37.73;99312.44;5040743;28;20033;-73
2021/08/07 05:13:03;;;;;;;3.83;1.75;;;;;;;25.80;37.43;99318.69;5049403;28;20066;-73
2021/08/07 05:15:28;;;;;;;11.63;1.90;;;;;;;26.18;36.99;99328.19;5045040;28;20115;-72
2021/08/07 05:17:54;;;;;;;6.80;1.33;;;;;;;26.18;36.46;99311.91;5042982;28;20037;-72
2021/08/07 05:20:20;;;;;;;2.92;1.85;;;;;;;26.52;35.60;99340.06;5040470;28;20032;-72
2021/08/07 05:22:46;;;;;;;9.68;1.45;;;;;;;26.72;35.14;99339.19;5047600;28;20031;-71
2021/08/07 05:25:11;;;;;;;4.18;1.55;;;;;;;26.98;35.45;99337.19;5025424;28;20327;-71
2021/08/07 05:27:37;;;;;;;3.08;1.60;;;;;;;27.20;34.58;99350.44;5043640;28;20096;-71
2021/08/07 05:30:05;;;;;;;1.95;1.52;;;;;;;27.38;34.17;99368.81;5055643;28;20032;-71
2021/08/07 05:32:31;;;;;;;5.15;1.35;;;;;;;27.86;33.24;99367.13;5051285;28;20065;-71
2021/08/07 05:34:56;;;;;;;2.13;1.50;;;;;;;28.04;32.99;99375.69;5054397;28;20031;-71
2021/08/07 05:37:22;;;;;;;5.35;1.30;;;;;;;28.23;32.74;99377.47;5051083;28;20032;-73
2021/08/07 05:39:47;;;;;;;1.30;1.17;;;;;;;28.35;32.09;99382.53;5055628;28;20025;-73
2021/08/07 05:42:12;;;;;;;4.10;1.17;;;;;;;28.50;32.20;99387.00;5031753;28;20038;-74
2021/08/07 05:44:38;;;;;;;5.15;1.50;;;;;;;28.90;31.53;99392.03;5049254;28;20037;-73
2021/08/07 05:47:03;;;;;;;3.15;1.80;;;;;;;28.91;31.24;99398.28;5045406;28;20035;-73
2021/08/07 05:49:29;;;;;;;3.97;2.08;;;;;;;29.13;30.58;99400.47;5053385;28;20037;-73
2021/08/07 05:51:54;;;;;;;2.05;1.80;;;;;;;29.16;30.83;99406.19;5043570;28;20046;-72
2021/08/07 05:54:20;;;;;;;5.90;2.25;;;;;;;29.34;30.60;99390.13;5048732;28;20031;-72
2021/08/07 05:56:46;;;;;;;6.22;1.50;;;;;;;29.34;30.30;99399.13;5057952;28;20051;-72
2021/08/07 05:59:12;;;;;;;3.13;1.20;;;;;;;29.65;30.35;99395.97;5053530;28;20226;-72
2021/08/07 06:01:37;;;;;;;5.07;1.27;;;;;;;30.14;29.72;99399.03;5051027;28;20267;-72
2021/08/07 06:04:03;;;;;;;2.67;1.40;;;;;;;29.96;29.78;99410.78;5047927;28;20227;-70
2021/08/07 06:06:28;;;;;;;5.47;1.80;;;;;;;30.12;29.89;99406.72;5056438;28;20087;-72
2021/08/07 06:08:54;;;;;;;5.15;2.15;;;;;;;30.37;29.69;99399.22;5062619;28;20298;-72
2021/08/07 06:11:19;;;;;;;2.65;1.55;;;;;;;30.24;30.07;99400.81;5054419;28;20587;-73
2021/08/07 06:13:44;;;;;;;4.50;1.70;;;;;;;30.16;29.82;99401.47;5057345;28;20025;-73
2021/08/07 06:16:10;;;;;;;2.70;1.42;;;;;;;30.38;30.04;99392.63;5052409;28;20078;-73
2021/08/07 06:18:35;;;;;;;3.53;1.60;;;;;;;30.68;29.72;99396.75;5043647;28;20030;-73
2021/08/07 06:21:01;;;;;;;6.90;1.38;;;;;;;30.99;28.71;99386.81;5058696;28;20036;-74
2021/08/07 06:23:26;;;;;;;4.93;1.52;;;;;;;31.01;28.75;99391.97;5061958;28;20036;-73
2021/08/07 06:25:52;;;;;;;10.95;2.38;;;;;;;31.15;28.90;99386.53;5044733;28;20048;-72
2021/08/07 06:28:17;;;;;;;2.53;1.30;;;;;;;31.05;28.63;99388.34;5047616;28;20034;-72
2021/08/07 06:30:46;;;;;;;8.15;1.50;;;;;;;31.48;28.61;99403.59;5049802;28;20037;-72
2021/08/07 06:33:12;;;;;;;4.63;1.30;;;;;;;31.52;28.44;99399.13;5054351;28;20037;-72
2021/08/07 06:35:37;;;;;;;2.05;1.25;;;;;;;31.66;27.78;99402.63;5059303;28;20033;-72
2021/08/07 06:38:03;;;;;;;1.85;1.10;;;;;;;32.13;26.82;99403.97;5061802;28;20051;-72
2021/08/07 06:40:29;;;;;;;2.72;1.38;;;;;;;32.54;27.08;99408.44;5043260;28;20051;-73
2021/08/07 06:42:55;;;;;;;5.57;0.93;;;;;;;32.38;26.61;99410.78;5047701;28;20127;-73
2021/08/07 06:45:20;;;;;;;6.68;1.70;;;;;;;32.57;26.20;99413.31;5050119;28;20311;-73
2021/08/07 06:47:46;;;;;;;8.07;1.40;;;;;;;32.97;25.81;99395.75;5042668;28;20238;-73
2021/08/07 06:50:11;;;;;;;3.30;1.40;;;;;;;33.45;25.31;99399.59;5047294;28;20083;-74
2021/08/07 06:52:37;;;;;;;4.38;1.58;;;;;;;33.32;25.52;99401.34;5047490;28;20049;-74
2021/08/07 06:55:03;;;;;;;3.75;1.33;;;;;;;33.32;25.45;99406.84;5046514;28;20345;-74
2021/08/07 06:57:28;;;;;;;11.75;1.35;;;;;;;33.49;25.17;99404.13;5053753;28;20040;-73
2021/08/07 06:59:54;;;;;;;2.35;1.15;;;;;;;33.57;24.73;99399.75;5048424;28;20041;-73
2021/08/07 07:02:20;;;;;;;7.57;1.30;;;;;;;33.51;24.67;99396.38;5053765;28;20048;-73
2021/08/07 07:04:46;;;;;;;1.33;1.00;;;;;;;33.29;23.64;99408.28;5050845;28;20041;-73
2021/08/07 07:07:12;;;;;;;5.18;1.60;;;;;;;33.59;23.71;99417.53;5049545;28;20037;-73
2021/08/07 07:09:37;;;;;;;2.20;1.20;;;;;;;34.40;22.80;99411.38;5039815;28;20029;-73
2021/08/07 07:12:04;;;;;;;1.42;1.02;;;;;;;34.24;22.46;99405.53;5049570;28;20028;-73
2021/08/07 07:14:29;;;;;;;8.30;1.40;;;;;;;33.49;22.31;99408.81;5053835;28;20089;-73
2021/08/07 07:16:55;;;;;;;1.38;1.20;;;;;;;33.68;22.58;99420.28;5060871;28;20041;-73
2021/08/07 07:19:20;;;;;;;3.22;1.10;;;;;;;34.12;22.39;99412.84;5059740;28;20029;-73
2021/08/07 07:21:46;;;;;;;5.57;1.67;;;;;;;34.01;22.56;99417.88;5050071;28;20037;-74
2021/08/07 07:24:12;;;;;;;4.32;1.30;;;;;;;34.71;21.78;99415.78;5046091;28;20040;-74
2021/08/07 07:26:37;;;;;;;1.98;1.23;;;;;;;34.82;21.45;99417.06;5046994;28;20041;-74
2021/08/07 07:29:03;;;;;;;1.92;1.27;;;;;;;34.43;22.17;99407.16;5053784;28;20056;-74
2021/08/07 07:31:28;;;;;;;2.50;1.15;;;;;;;34.23;22.14;99406.66;5046850;28;20131;-74
2021/08/07 07:33:54;;;;;;;5.68;1.60;;;;;;;34.81;21.97;99405.22;5046757;28;20286;-74
2021/08/07 07:36:20;;;;;;;3.38;1.30;;;;;;;34.45;22.04;99402.94;5045275;28;20029;-73
2021/08/07 07:38:46;;;;;;;3.00;1.30;;;;;;;34.88;21.33;99408.28;5042666;28;20032;-73
2021/08/07 07:41:13;;;;;;;2.72;0.93;;;;;;;34.36;21.95;99401.38;5054104;28;20040;-73
2021/08/07 07:43:38;;;;;;;3.20;1.23;;;;;;;33.72;22.74;99414.94;5033509;28;20021;-73
2021/08/07 07:46:04;;;;;;;1.98;1.17;;;;;;;33.70;22.52;99420.75;5052472;28;20388;-73
2021/08/07 07:48:30;;;;;;;7.43;1.55;;;;;;;33.65;22.37;99418.19;5061147;28;20033;-73
2021/08/07 07:50:56;;;;;;;1.83;1.17;;;;;;;33.84;22.84;99415.13;5058782;28;20196;-72
2021/08/07 07:53:21;;;;;;;3.83;1.45;;;;;;;34.10;21.90;99415.91;5049954;28;20075;-73
2021/08/07 07:55:47;;;;;;;1.98;1.30;;;;;;;34.30;22.20;99419.91;5041877;28;20037;-73
2021/08/07 07:58:12;;;;;;;1.00;0.90;;;;;;;34.97;21.27;99426.69;5048147;28;20041;-74
2021/08/07 08:00:38;;;;;;;1.63;1.00;;;;;;;34.94;20.47;99432.88;5050114;28;20067;-74
2021/08/07 08:03:03;;;;;;;2.35;1.42;;;;;;;34.72;21.45;99420.16;5049108;28;20219;-74
2021/08/07 08:05:29;;;;;;;0.85;0.80;;;;;;;35.03;20.24;99412.41;5053218;28;20037;-74
2021/08/07 08:07:55;;;;;;;3.30;1.30;;;;;;;35.10;20.21;99414.66;5047016;28;20033;-73
2021/08/07 08:10:20;;;;;;;6.75;1.25;;;;;;;35.54;19.43;99412.47;5048842;28;20033;-73
2021/08/07 08:12:47;;;;;;;4.63;1.25;;;;;;;35.40;19.28;99415.50;5050008;28;20381;-73
2021/08/07 08:15:14;;;;;;;5.95;1.08;;;;;;;35.81;18.96;99414.72;5054600;28;20032;-73
2021/08/07 08:17:39;;;;;;;0.85;0.85;;;;;;;35.74;19.00;99417.16;5052880;28;20049;-73
2021/08/07 08:20:08;;;;;;;3.75;1.20;;;;;;;35.28;19.19;99427.16;5042955;28;20080;-73
2021/08/07 08:22:33;;;;;;;1.20;0.98;;;;;;;35.00;19.83;99437.03;5050621;28;20021;-73
2021/08/07 08:25:00;;;;;;;2.75;2.00;;;;;;;34.97;21.04;99430.25;5034189;28;20043;-73
2021/08/07 08:27:26;;;;;;;1.23;1.13;;;;;;;34.61;20.31;99432.66;5050834;28;20364;-73
2021/08/07 08:29:51;;;;;;;4.63;1.08;;;;;;;34.75;20.10;99425.00;5047441;28;20021;-73
2021/08/07 08:32:17;;;;;;;1.35;1.00;;;;;;;34.88;19.65;99418.50;5050546;28;20043;-74
2021/08/07 08:34:43;;;;;;;2.58;1.05;;;;;;;34.56;20.27;99417.94;5044531;28;20036;-74
2021/08/07 08:37:09;;;;;;;2.05;1.00;;;;;;;34.46;20.62;99423.00;5041218;28;20044;-74
2021/08/07 08:39:35;;;;;;;4.53;1.20;;;;;;;34.32;20.54;99425.91;5033003;28;20391;-74
2021/08/07 08:42:01;;;;;;;1.27;0.95;;;;;;;34.56;20.53;99426.19;5048798;28;20063;-74
2021/08/07 08:44:26;;;;;;;3.63;1.25;;;;;;;34.69;20.26;99413.38;5045319;28;20362;-73
2021/08/07 08:46:52;;;;;;;1.10;1.00;;;;;;;34.69;19.29;99421.63;5041753;28;20029;-72
2021/08/07 08:49:19;;;;;;;4.28;1.70;;;;;;;35.04;19.73;99416.78;5040348;28;20104;-73
2021/08/07 08:51:45;;;;;;;3.90;1.40;;;;;;;35.45;19.54;99418.84;5046531;28;20049;-73
2021/08/07 08:54:12;;;;;;;1.95;0.90;;;;;;;36.02;18.86;99412.72;5052378;28;20033;-73
2021/08/07 08:56:38;;;;;;;1.90;1.45;;;;;;;35.87;19.19;99409.78;5055210;28;20033;-73
2021/08/07 08:59:05;;;;;;;3.28;1.00;;;;;;;35.90;19.24;99417.38;5049843;28;20104;-73
2021/08/07 09:01:30;;;;;;;13.52;1.88;;;;;;;35.94;18.66;99412.81;5036567;28;20281;-73
2021/08/07 09:03:56;;;;;;;3.72;0.80;;;;;;;35.97;18.95;99407.41;5053715;28;20044;-73
2021/08/07 09:06:21;;;;;;;2.00;1.00;;;;;;;36.15;18.88;99400.59;5052963;28;20083;-73
2021/08/07 09:09:10;;;;;;;1.42;1.10;;;;;;;36.23;19.07;99403.59;5053033;28;20033;-74
2021/08/07 09:11:47;;;;;;;3.28;1.10;;;;;;;36.01;18.30;99391.81;5054567;28;20032;-74
2021/08/07 09:14:17;;;;;;;3.53;1.20;;;;;;;35.96;18.68;99402.25;5048215;28;20319;-74
2021/08/07 09:16:58;;;;;;;2.80;1.13;;;;;;;35.80;18.33;99402.03;5051276;28;20048;-74
2021/08/07 09:19:24;;;;;;;1.10;1.00;;;;;;;35.32;19.40;99383.28;5055480;28;20041;-74
2021/08/07 09:22:11;;;;;;;1.35;1.20;;;;;;;34.28;20.42;99384.50;5057100;28;20040;-73
2021/08/07 09:24:57;;;;;;;1.08;1.08;;;;;;;34.27;20.49;99393.06;5048298;28;20045;-73
2021/08/07 09:27:30;;;;;;;7.32;1.60;;;;;;;34.37;19.76;99381.00;5044990;28;20041;-73
2021/08/07 09:29:56;;;;;;;1.60;0.73;;;;;;;34.14;19.90;99383.91;5054046;28;20052;-73
2021/08/07 09:32:21;;;;;;;5.88;1.15;;;;;;;33.71;21.04;99372.94;5046309;28;20231;-73
2021/08/07 09:35:04;;;;;;;1.50;1.20;;;;;;;34.04;20.85;99383.44;5049606;28;20041;-73
2021/08/07 09:37:29;;;;;;;5.68;3.25;;;;;;;34.22;20.66;99391.31;5054468;28;20091;-72
2021/08/07 09:39:55;;;;;;;1.30;1.17;;;;;;;34.24;20.18;99378.06;5049443;28;20327;-73
2021/08/07 09:42:20;;;;;;;2.60;0.60;;;;;;;33.99;19.99;99381.66;5049332;28;20033;-73
2021/08/07 09:45:03;;;;;;;1.42;0.90;;;;;;;33.84;19.87;99376.69;5052721;28;20033;-74
2021/08/07 09:47:30;;;;;;;3.85;1.00;;;;;;;33.63;20.96;99376.50;5048361;28;20210;-74
2021/08/07 09:49:55;;;;;;;1.65;1.55;;;;;;;33.81;21.01;99377.31;5050838;28;20319;-74
2021/08/07 09:52:21;;;;;;;1.55;1.10;;;;;;;33.99;21.54;99369.88;5050731;28;20051;-74
2021/08/07 09:54:47;;;;;;;5.20;4.70;;;;;;;34.16;21.24;99370.63;5049446;28;20036;-74
2021/08/07 09:57:27;;;;;;;2.25;2.00;;;;;;;34.34;21.19;99365.97;5047059;28;20029;-74
2021/08/07 09:59:52;;;;;;;5.63;3.45;;;;;;;34.37;20.78;99375.50;5061241;28;20111;-73
2021/08/07 10:02:30;;;;;;;1.20;1.00;;;;;;;34.23;20.51;99367.38;5061954;28;20132;-73
2021/08/07 10:04:56;;;;;;;8.77;2.10;;;;;;;34.12;21.02;99372.44;5054718;28;20036;-73
2021/08/07 10:07:23;;;;;;;11.43;5.78;;;;;;;33.87;21.44;99367.78;5057135;28;20025;-73
2021/08/07 10:09:50;;;;;;;3.67;0.98;;;;;;;33.95;21.11;99373.28;5053705;28;20053;-73
2021/08/07 10:12:16;;;;;;;1.10;1.00;;;;;;;33.71;20.97;99359.22;5048320;28;20041;-73
2021/08/07 10:14:43;;;;;;;1.42;0.90;;;;;;;33.60;21.40;99356.00;5051212;28;20389;-73
2021/08/07 10:17:14;;;;;;;5.70;1.00;;;;;;;33.57;21.73;99331.13;5059085;28;20357;-73
2021/08/07 10:19:41;;;;;;;7.00;1.00;;;;;;;33.63;21.76;99349.88;5044342;28;20053;-73
2021/08/07 10:22:10;;;;;;;8.43;1.50;;;;;;;33.20;21.93;99358.03;5048394;28;20099;-74
2021/08/07 10:24:41;;;;;;;4.93;1.10;;;;;;;33.59;22.29;99365.38;5052472;28;20088;-74
2021/08/07 10:27:07;;;;;;;1.70;1.00;;;;;;;33.79;21.75;99374.06;5050599;28;20021;-74
2021/08/07 10:29:45;;;;;;;1.58;1.00;;;;;;;33.89;21.82;99365.53;5047930;28;20346;-74
2021/08/07 10:32:13;;;;;;;2.92;1.08;;;;;;;33.73;21.57;99364.38;5054567;28;20029;-74
2021/08/07 10:34:43;;;;;;;0.77;0.77;;;;;;;34.02;21.13;99352.75;5046332;28;20230;-74
2021/08/07 10:37:09;;;;;;;1.48;1.02;;;;;;;33.76;21.58;99358.25;5038347;28;20025;-73
2021/08/07 10:39:34;;;;;;;1.02;0.73;;;;;;;33.50;21.69;99353.59;5048831;28;20396;-73
2021/08/07 10:42:03;;;;;;;1.10;1.00;;;;;;;33.38;21.63;99353.41;5046112;28;20040;-73
2021/08/07 10:44:31;;;;;;;3.45;0.90;;;;;;;33.50;22.82;99350.84;5050163;28;20029;-73
2021/08/07 10:46:57;;;;;;;1.90;1.10;;;;;;;33.58;21.91;99354.72;5051084;28;20735;-72
2021/08/07 10:49:38;;;;;;;2.25;0.85;;;;;;;33.55;21.62;99355.34;5049997;28;20285;-73
2021/08/07 10:52:22;;;;;;;1.23;1.10;;;;;;;33.42;21.89;99345.34;5053826;28;20047;-72
2021/08/07 10:54:48;;;;;;;2.22;1.08;;;;;;;33.37;21.95;99351.00;5053097;28;20258;-73
2021/08/07 10:57:40;;;;;;;2.08;1.33;;;;;;;33.34;21.63;99346.16;5037609;28;20028;-72
2021/08/07 11:00:14;;;;;;;1.13;0.88;;;;;;;33.00;21.75;99347.66;5058039;28;20043;-73
2021/08/07 11:02:40;;;;;;;1.38;0.88;;;;;;;33.32;21.17;99332.75;5029639;28;20029;-73
2021/08/07 11:05:06;;;;;;;1.88;0.98;;;;;;;33.29;22.48;99339.69;5042247;28;20048;-74
2021/08/07 11:07:31;;;;;;;3.05;0.80;;;;;;;33.49;22.21;99330.00;5039861;28;20234;-73
2021/08/07 11:10:02;;;;;;;3.78;0.73;;;;;;;33.77;22.28;99326.91;5044128;28;20041;-74
2021/08/07 11:12:28;;;;;;;1.67;0.98;;;;;;;33.95;22.92;99334.81;5055823;28;20031;-73
2021/08/07 11:14:56;;;;;;;1.05;0.90;;;;;;;34.04;21.79;99332.06;5054296;28;20033;-73
2021/08/07 11:17:29;;;;;;;1.52;1.00;;;;;;;33.87;21.85;99326.59;5042256;28;20047;-73
2021/08/07 11:20:07;;;;;;;2.72;1.05;;;;;;;33.78;21.86;99325.78;5050792;28;20041;-73
2021/08/07 11:22:36;;;;;;;4.78;1.20;;;;;;;33.81;21.36;99325.97;5050450;28;20029;-73
2021/08/07 11:25:09;;;;;;;1.02;0.70;;;;;;;33.94;22.08;99332.41;5034217;28;20063;-73
2021/08/07 11:27:47;;;;;;;0.82;0.70;;;;;;;33.91;21.61;99328.38;5046083;28;20051;-73
2021/08/07 11:30:18;;;;;;;3.83;1.00;;;;;;;33.99;21.43;99331.41;5052990;28;20120;-73
2021/08/07 11:32:59;;;;;;;2.60;0.88;;;;;;;33.93;22.27;99330.78;5046920;28;20041;-73
2021/08/07 11:35:33;;;;;;;1.98;1.08;;;;;;;34.01;21.30;99318.97;5054323;28;20096;-74